Time;durP1;ratioP1;P1;durP2;ratioP2;P2;SDS_P1;SDS_P2;PMS_P1;PMS_P2;Temp;Humidity;BMP_temperature;BMP_pressure;BME280_temperature;BME280_humidity;BME280_pressure;Samples;Min_cycle;Max_cycle;Signal;HPM_P1;HPM_P2
2022/11/22 00:00:34;;;;;;;7.25;3.92;;;4.60;99.90;;;;;;4972106;28;20441;-65
2022/11/22 00:03:00;;;;;;;8.05;4.25;;;4.60;99.90;;;;;;4973207;28;20046;-64
2022/11/22 00:05:27;;;;;;;;;;;4.60;99.90;;;;;;4969324;28;20571;-65
2022/11/22 00:07:54;;;;;;;9.18;5.20;;;4.70;99.90;;;;;;4969873;28;19925;-64
2022/11/22 00:10:21;;;;;;;;;;;4.60;99.90;;;;;;4974342;28;20097;-65
2022/11/22 00:12:48;;;;;;;6.78;4.57;;;4.60;99.90;;;;;;4969162;28;19929;-64
2022/11/22 00:15:15;;;;;;;7.95;4.10;;;4.60;99.90;;;;;;4973861;28;20053;-65
2022/11/22 00:17:42;;;;;;;;;;;4.60;99.90;;;;;;4970300;28;20060;-63
2022/11/22 00:20:12;;;;;;;8.98;4.80;;;4.60;99.90;;;;;;4972078;28;19925;-64
2022/11/22 00:22:39;;;;;;;9.45;5.28;;;4.70;99.90;;;;;;4968847;28;20105;-66
2022/11/22 00:25:11;;;;;;;6.25;4.45;;;4.60;99.90;;;;;;4972124;28;20057;-65
2022/11/22 00:27:39;;;;;;;9.20;5.35;;;4.60;99.90;;;;;;4973268;28;20093;-65
2022/11/22 00:30:06;;;;;;;11.55;5.22;;;4.60;99.90;;;;;;4968472;28;20050;-63
2022/11/22 00:32:33;;;;;;;7.90;3.95;;;4.60;99.90;;;;;;4972738;28;20584;-64
2022/11/22 00:35:00;;;;;;;5.78;3.70;;;4.60;99.90;;;;;;4971635;28;20041;-65
2022/11/22 00:37:26;;;;;;;6.88;3.53;;;4.60;99.90;;;;;;4969129;28;20755;-65
2022/11/22 00:39:53;;;;;;;;;;;4.60;99.90;;;;;;4972660;28;20751;-64
2022/11/22 00:42:20;;;;;;;4.50;2.70;;;4.70;99.90;;;;;;4972185;28;19925;-65
2022/11/22 00:44:46;;;;;;;3.13;2.33;;;4.70;99.90;;;;;;4972482;28;20053;-64
2022/11/22 00:47:13;;;;;;;;;;;4.70;99.90;;;;;;4974077;28;20044;-65
2022/11/22 00:49:40;;;;;;;4.28;1.67;;;4.70;99.90;;;;;;4952426;28;19930;-65
2022/11/22 00:52:06;;;;;;;;;;;4.70;99.90;;;;;;4972382;28;20053;-64
2022/11/22 00:54:33;;;;;;;2.28;1.30;;;4.80;99.90;;;;;;4972341;28;19933;-63
2022/11/22 00:57:00;;;;;;;;;;;4.80;99.90;;;;;;4972953;28;20058;-62
2022/11/22 00:59:26;;;;;;;2.53;1.10;;;4.80;99.90;;;;;;4969754;28;19933;-65
2022/11/22 01:01:54;;;;;;;3.33;0.80;;;4.80;99.90;;;;;;4974379;28;20706;-66
2022/11/22 01:04:20;;;;;;;1.80;1.30;;;4.90;99.90;;;;;;4970717;28;20038;-66
2022/11/22 01:06:47;;;;;;;;;;;4.90;99.90;;;;;;4975634;28;20049;-65
2022/11/22 01:09:21;;;;;;;13.93;0.93;;;4.90;99.90;;;;;;4973406;28;20576;-65
2022/11/22 01:11:49;;;;;;;0.88;0.80;;;4.90;99.90;;;;;;4972057;28;20137;-66
2022/11/22 01:14:16;;;;;;;2.17;0.85;;;4.90;99.90;;;;;;4971784;28;20794;-65
2022/11/22 01:16:43;;;;;;;1.77;1.00;;;4.90;99.90;;;;;;4974649;28;20163;-66
2022/11/22 01:19:10;;;;;;;1.17;0.80;;;4.90;99.90;;;;;;4975413;28;20166;-65
2022/11/22 01:21:37;;;;;;;7.20;0.77;;;5.00;99.90;;;;;;4975375;28;20525;-63
2022/11/22 01:24:04;;;;;;;1.40;0.70;;;5.00;99.90;;;;;;4972070;28;20168;-64
2022/11/22 01:26:32;;;;;;;1.88;0.55;;;5.00;99.90;;;;;;4972954;28;20333;-65
2022/11/22 01:28:58;;;;;;;0.43;0.43;;;5.00;99.90;;;;;;4975759;28;20069;-66
2022/11/22 01:31:25;;;;;;;;;;;5.00;99.90;;;;;;4977229;28;20107;-65
2022/11/22 01:33:52;;;;;;;1.95;0.52;;;5.10;99.90;;;;;;4977590;28;19925;-64
2022/11/22 01:36:19;;;;;;;2.53;0.60;;;5.10;99.90;;;;;;4974033;28;20137;-65
2022/11/22 01:38:45;;;;;;;1.45;0.57;;;5.10;99.90;;;;;;4980853;28;20858;-64
2022/11/22 01:41:12;;;;;;;;;;;5.10;99.90;;;;;;4972528;28;20190;-66
2022/11/22 01:43:39;;;;;;;0.45;0.45;;;5.20;99.90;;;;;;4971421;28;19929;-66
2022/11/22 01:46:36;;;;;;;0.98;0.30;;;5.20;99.90;;;;;;4974671;28;20045;-63
2022/11/22 01:49:30;;;;;;;1.38;0.45;;;5.20;99.90;;;;;;4974155;28;20137;-65
2022/11/22 01:52:03;;;;;;;0.40;0.38;;;5.20;99.90;;;;;;4978623;28;20124;-66
2022/11/22 01:54:34;;;;;;;1.83;0.60;;;5.20;99.90;;;;;;4975673;28;20549;-64
2022/11/22 01:57:07;;;;;;;2.17;0.73;;;5.20;99.90;;;;;;4975797;28;20893;-65
2022/11/22 01:59:35;;;;;;;1.00;0.60;;;5.20;99.90;;;;;;4975020;28;20112;-65
2022/11/22 02:02:04;;;;;;;1.35;0.50;;;5.20;99.90;;;;;;4974893;28;20886;-66
2022/11/22 02:04:33;;;;;;;2.17;0.75;;;5.20;99.90;;;;;;4974325;28;20740;-64
2022/11/22 02:07:09;;;;;;;2.00;0.70;;;5.30;99.90;;;;;;4975649;28;20160;-64
2022/11/22 02:09:38;;;;;;;0.73;0.60;;;5.30;99.90;;;;;;4973118;28;20046;-62
2022/11/22 02:12:06;;;;;;;0.43;0.43;;;5.30;99.90;;;;;;4973760;28;20124;-64
2022/11/22 02:14:33;;;;;;;1.00;0.50;;;5.30;99.90;;;;;;4969473;28;20116;-64
2022/11/22 02:17:00;;;;;;;2.92;0.50;;;5.30;99.90;;;;;;4975305;28;20038;-63
2022/11/22 02:19:45;;;;;;;0.70;0.52;;;5.40;99.90;;;;;;4976405;28;20056;-64
2022/11/22 02:22:31;;;;;;;4.00;0.70;;;5.40;99.90;;;;;;4974318;28;20133;-65
2022/11/22 02:25:19;;;;;;;1.15;0.50;;;5.40;99.90;;;;;;4971487;28;20674;-63
2022/11/22 02:27:46;;;;;;;1.70;0.70;;;5.40;99.90;;;;;;4974512;28;20160;-64
2022/11/22 02:30:13;;;;;;;0.57;0.55;;;5.40;99.90;;;;;;4977553;28;20057;-65
2022/11/22 02:32:40;;;;;;;0.47;0.40;;;5.40;99.90;;;;;;4976401;28;20040;-64
2022/11/22 02:35:19;;;;;;;0.90;0.65;;;5.40;99.90;;;;;;4973955;28;20045;-64
2022/11/22 02:37:49;;;;;;;1.60;0.60;;;5.40;99.90;;;;;;4976819;28;20335;-66
2022/11/22 02:40:17;;;;;;;0.70;0.47;;;5.40;99.90;;;;;;4973275;28;20153;-65
2022/11/22 02:42:49;;;;;;;3.72;0.63;;;5.40;99.90;;;;;;4965908;28;20145;-67
2022/11/22 02:45:16;;;;;;;1.45;0.60;;;5.40;99.90;;;;;;4972721;28;20572;-67
2022/11/22 02:47:42;;;;;;;3.13;0.60;;;5.40;99.90;;;;;;4969192;28;20045;-64
2022/11/22 02:50:09;;;;;;;;;;;5.40;99.90;;;;;;4976716;28;20038;-67
2022/11/22 02:52:36;;;;;;;2.85;1.10;;;5.40;99.90;;;;;;4973570;28;20508;-65
2022/11/22 02:55:02;;;;;;;;;;;5.50;99.90;;;;;;4970892;28;20583;-61
2022/11/22 02:57:29;;;;;;;1.23;0.70;;;5.50;99.90;;;;;;4976273;28;19930;-65
2022/11/22 02:59:56;;;;;;;4.00;1.70;;;5.50;99.90;;;;;;4974865;28;20042;-65
2022/11/22 03:02:22;;;;;;;4.70;1.58;;;5.50;99.90;;;;;;4968907;28;20575;-63
2022/11/22 03:04:49;;;;;;;3.30;1.38;;;5.50;99.90;;;;;;4970347;28;20172;-65
2022/11/22 03:07:17;;;;;;;;;;;5.40;99.90;;;;;;4974344;28;20046;-64
2022/11/22 03:09:44;;;;;;;2.75;1.73;;;5.40;99.90;;;;;;4972079;28;20330;-64
2022/11/22 03:12:10;;;;;;;5.18;1.80;;;5.40;99.90;;;;;;4971037;28;20041;-65
2022/11/22 03:14:37;;;;;;;;;;;5.40;99.90;;;;;;4973173;28;20039;-63
2022/11/22 03:17:03;;;;;;;5.50;2.67;;;5.30;99.90;;;;;;4970090;28;19932;-64
2022/11/22 03:19:30;;;;;;;10.00;2.85;;;5.30;99.90;;;;;;4971826;28;20042;-63
2022/11/22 03:21:58;;;;;;;6.57;2.63;;;5.30;99.90;;;;;;4973551;28;20553;-65
2022/11/22 03:24:24;;;;;;;5.32;2.72;;;5.30;99.90;;;;;;4974188;28;20080;-65
2022/11/22 03:26:51;;;;;;;3.63;2.30;;;5.30;99.90;;;;;;4972710;28;20049;-64
2022/11/22 03:29:18;;;;;;;;;;;5.30;99.90;;;;;;4972230;28;20121;-63
2022/11/22 03:31:44;;;;;;;10.38;3.03;;;5.30;99.90;;;;;;4974623;28;19929;-65
2022/11/22 03:34:11;;;;;;;;;;;5.30;99.90;;;;;;4972305;28;20152;-64
2022/11/22 03:36:38;;;;;;;7.38;2.83;;;5.20;99.90;;;;;;4973888;28;19925;-64
2022/11/22 03:39:06;;;;;;;5.65;2.30;;;5.20;99.90;;;;;;4952394;28;20144;-64
2022/11/22 03:41:32;;;;;;;8.20;2.22;;;5.20;99.90;;;;;;4971994;28;20107;-66
2022/11/22 03:43:59;;;;;;;;;;;5.20;99.90;;;;;;4958315;28;20120;-65
2022/11/22 03:46:26;;;;;;;3.97;2.42;;;5.20;99.90;;;;;;4972941;28;19925;-65
2022/11/22 03:48:52;;;;;;;6.90;2.75;;;5.20;99.90;;;;;;4970924;28;20842;-64
2022/11/22 03:51:19;;;;;;;11.02;4.63;;;5.20;99.90;;;;;;4974243;28;20054;-65
2022/11/22 03:53:46;;;;;;;2.15;1.83;;;5.20;99.90;;;;;;4967671;28;20523;-65
2022/11/22 03:56:12;;;;;;;;;;;5.10;99.90;;;;;;4971851;28;20046;-65
2022/11/22 03:58:39;;;;;;;8.10;3.72;;;5.10;99.90;;;;;;4970147;28;19929;-65
2022/11/22 04:01:06;;;;;;;7.20;2.70;;;5.10;99.90;;;;;;4970563;28;20046;-64
2022/11/22 04:03:39;;;;;;;6.90;2.20;;;5.10;99.90;;;;;;4975147;28;20748;-63
2022/11/22 04:06:05;;;;;;;7.13;2.65;;;5.10;99.90;;;;;;4971851;28;20687;-63
2022/11/22 04:08:32;;;;;;;;;;;5.10;99.90;;;;;;4953738;28;20902;-65
2022/11/22 04:10:59;;;;;;;4.15;1.83;;;5.10;99.90;;;;;;4971492;28;19930;-64
2022/11/22 04:15:05;;;;;;;5.57;1.77;;;5.00;99.90;;;;;;4969276;28;20053;-63
2022/11/22 04:16:13;;;;;;;10.13;1.80;;;5.10;99.90;;;;;;4971864;28;20046;-65
2022/11/22 04:18:39;;;;;;;;;;;5.00;99.90;;;;;;4964591;28;20056;-65
2022/11/22 04:26:37;;;;;;;8.90;2.00;;;5.00;99.90;;;;;;4974802;28;20050;-61
2022/11/22 04:29:03;;;;;;;8.55;2.35;;;5.00;99.90;;;;;;4956163;28;20157;-61
2022/11/22 04:34:23;;;;;;;12.32;1.83;;;5.00;99.90;;;;;;4952295;28;20085;-61
2022/11/22 04:36:50;;;;;;;3.60;1.50;;;4.90;99.90;;;;;;4953704;28;20051;-61
2022/11/22 04:39:16;;;;;;;8.35;1.80;;;4.90;99.90;;;;;;4951889;28;20051;-63
2022/11/22 04:41:43;;;;;;;;;;;5.00;99.90;;;;;;4955393;28;20046;-62
2022/11/22 04:46:55;;;;;;;7.38;2.05;;;4.90;99.90;;;;;;4948806;28;20061;-62
2022/11/22 04:49:22;;;;;;;4.70;1.67;;;4.90;99.90;;;;;;4955148;28;20053;-61
2022/11/22 04:54:35;;;;;;;5.55;1.60;;;4.90;99.90;;;;;;4955557;28;20057;-60
2022/11/22 04:57:01;;;;;;;;;;;4.80;99.90;;;;;;4957553;28;20050;-61
2022/11/22 04:59:28;;;;;;;6.15;1.88;;;4.80;99.90;;;;;;4955122;28;20804;-62
2022/11/22 05:01:55;;;;;;;10.35;2.10;;;4.80;99.90;;;;;;4954090;28;20069;-62
2022/11/22 05:04:22;;;;;;;10.75;2.20;;;4.80;99.90;;;;;;4957117;28;20046;-62
2022/11/22 05:06:50;;;;;;;5.35;2.10;;;4.80;99.90;;;;;;4953107;28;20153;-63
2022/11/22 05:09:17;;;;;;;6.75;1.98;;;4.80;99.90;;;;;;4956260;28;20049;-63
2022/11/22 05:11:44;;;;;;;14.45;4.13;;;4.80;99.90;;;;;;4957234;28;20054;-60
2022/11/22 05:14:10;;;;;;;;;;;4.80;99.90;;;;;;4954097;28;20046;-60
2022/11/22 05:16:37;;;;;;;7.65;3.10;;;4.80;99.90;;;;;;4956330;28;20435;-60
2022/11/22 05:19:04;;;;;;;8.88;1.83;;;4.80;99.90;;;;;;4952523;28;20049;-61
2022/11/22 05:21:34;;;;;;;7.68;2.05;;;4.80;99.90;;;;;;4953818;28;20054;-64
2022/11/22 05:24:01;;;;;;;7.90;1.65;;;4.80;99.90;;;;;;4952961;28;20047;-61
2022/11/22 05:26:34;;;;;;;10.32;2.05;;;4.70;99.90;;;;;;4956713;28;20694;-61
2022/11/22 05:29:06;;;;;;;8.40;1.88;;;4.70;99.90;;;;;;4956896;28;20124;-59
2022/11/22 05:31:35;;;;;;;13.50;2.25;;;4.70;99.90;;;;;;4955803;28;20043;-59
2022/11/22 05:34:04;;;;;;;8.60;1.67;;;4.70;99.90;;;;;;4957003;28;20039;-59
2022/11/22 05:36:32;;;;;;;7.38;2.38;;;4.70;99.90;;;;;;4950322;28;20066;-60
2022/11/22 05:38:59;;;;;;;7.25;1.65;;;4.70;99.90;;;;;;4953411;28;20164;-65
2022/11/22 05:41:26;;;;;;;10.05;1.90;;;4.70;99.90;;;;;;4956237;28;20049;-65
2022/11/22 05:43:55;;;;;;;13.20;2.15;;;4.70;99.90;;;;;;4954630;28;20050;-64
2022/11/22 05:46:25;;;;;;;4.90;1.92;;;4.70;99.90;;;;;;4953073;28;20077;-65
2022/11/22 05:48:53;;;;;;;6.40;2.10;;;4.60;99.90;;;;;;4957669;28;20047;-64
2022/11/22 05:51:22;;;;;;;8.27;2.33;;;4.60;99.90;;;;;;4953762;28;20125;-65
2022/11/22 05:53:52;;;;;;;12.13;2.50;;;4.60;99.90;;;;;;4954853;28;20469;-64
2022/11/22 05:56:21;;;;;;;6.18;1.80;;;4.60;99.90;;;;;;4955623;28;20043;-66
2022/11/22 05:58:49;;;;;;;3.78;1.45;;;4.60;99.90;;;;;;4959151;28;20602;-65
2022/11/22 06:01:20;;;;;;;14.30;1.83;;;4.60;99.90;;;;;;4953531;28;20049;-65
2022/11/22 06:03:48;;;;;;;5.78;1.27;;;4.60;99.90;;;;;;4952160;28;20050;-64
2022/11/22 06:06:15;;;;;;;9.75;1.55;;;4.60;99.90;;;;;;4954196;28;20065;-64
2022/11/22 06:08:46;;;;;;;9.95;2.45;;;4.60;99.90;;;;;;4937470;28;20121;-65
2022/11/22 06:11:21;;;;;;;6.65;1.77;;;4.60;99.90;;;;;;4954477;28;20046;-65
2022/11/22 06:13:51;;;;;;;5.75;1.17;;;4.50;99.90;;;;;;4955887;28;20113;-67
2022/11/22 06:16:18;;;;;;;6.80;1.65;;;4.50;99.90;;;;;;4957259;28;20046;-66
2022/11/22 06:18:45;;;;;;;5.82;1.33;;;4.50;99.90;;;;;;4953753;28;20118;-66
2022/11/22 06:21:15;;;;;;;13.00;2.03;;;4.50;99.90;;;;;;4943495;28;20523;-65
2022/11/22 06:23:42;;;;;;;6.07;1.60;;;4.50;99.90;;;;;;4952840;28;20046;-65
2022/11/22 06:26:12;;;;;;;6.45;2.33;;;4.50;99.90;;;;;;4954486;28;20054;-65
2022/11/22 06:28:39;;;;;;;4.60;1.25;;;4.60;99.90;;;;;;4951717;28;20056;-64
2022/11/22 06:31:10;;;;;;;9.32;2.03;;;4.60;99.90;;;;;;4954338;28;20043;-65
2022/11/22 06:33:38;;;;;;;5.47;2.00;;;4.50;99.90;;;;;;4954737;28;20038;-63
2022/11/22 06:36:13;;;;;;;10.02;1.90;;;4.50;99.90;;;;;;4952737;28;20260;-65
2022/11/22 06:38:41;;;;;;;13.68;2.33;;;4.50;99.90;;;;;;4939104;28;20043;-65
2022/11/22 06:41:14;;;;;;;11.52;2.45;;;4.50;99.90;;;;;;4955703;28;20046;-49
2022/11/22 06:43:42;;;;;;;6.15;1.73;;;4.50;99.90;;;;;;4953310;28;20133;-51
2022/11/22 06:46:19;;;;;;;12.07;3.03;;;4.50;99.90;;;;;;4953472;28;20875;-53
2022/11/22 06:48:47;;;;;;;6.43;1.33;;;4.50;99.90;;;;;;4954331;28;20069;-52
2022/11/22 06:51:19;;;;;;;11.07;2.00;;;4.50;99.90;;;;;;4955456;28;20050;-54
2022/11/22 06:53:47;;;;;;;3.58;1.30;;;4.40;99.90;;;;;;4941174;28;20163;-53
2022/11/22 06:56:16;;;;;;;4.72;1.33;;;4.40;99.90;;;;;;4950981;28;20073;-52
2022/11/22 06:58:44;;;;;;;7.45;2.00;;;4.30;99.90;;;;;;4952152;28;20101;-55
2022/11/22 07:01:14;;;;;;;4.53;1.55;;;4.30;99.90;;;;;;4954865;28;20921;-53
2022/11/22 07:03:42;;;;;;;2.40;1.10;;;4.30;99.90;;;;;;4953891;28;20054;-52
2022/11/22 07:06:11;;;;;;;2.25;0.90;;;4.30;99.90;;;;;;4955489;28;20082;-52
2022/11/22 07:08:39;;;;;;;3.92;1.40;;;4.20;99.90;;;;;;4954614;28;20046;-52
2022/11/22 07:11:09;;;;;;;2.67;1.08;;;4.20;99.90;;;;;;4951366;28;20160;-53
2022/11/22 07:13:36;;;;;;;5.15;1.65;;;4.20;99.90;;;;;;4952476;28;20105;-52
2022/11/22 07:16:05;;;;;;;6.20;1.92;;;4.20;99.90;;;;;;4936120;28;20042;-53
2022/11/22 07:18:32;;;;;;;3.05;1.10;;;4.20;99.90;;;;;;4953172;28;20042;-52
2022/11/22 07:21:17;;;;;;;3.38;1.48;;;4.20;99.90;;;;;;4952325;28;20408;-53
2022/11/22 07:23:45;;;;;;;4.32;1.50;;;4.10;99.90;;;;;;4955190;28;20146;-52
2022/11/22 07:26:13;;;;;;;2.30;1.17;;;4.10;99.90;;;;;;4955269;28;20043;-54
2022/11/22 07:28:40;;;;;;;2.10;1.20;;;4.10;99.90;;;;;;4952708;28;20053;-52
2022/11/22 07:31:10;;;;;;;3.47;1.48;;;4.10;99.90;;;;;;4957720;28;20437;-52
2022/11/22 07:33:37;;;;;;;3.38;1.40;;;4.10;99.90;;;;;;4956096;28;20125;-53
2022/11/22 07:36:06;;;;;;;2.78;1.23;;;4.10;99.90;;;;;;4953315;28;20162;-50
2022/11/22 07:38:33;;;;;;;5.40;1.48;;;4.10;99.90;;;;;;4951464;28;20078;-56
2022/11/22 07:41:01;;;;;;;2.22;1.33;;;4.10;99.90;;;;;;4953386;28;20501;-52
2022/11/22 07:43:28;;;;;;;4.25;1.17;;;4.10;99.90;;;;;;4954871;28;20130;-51
2022/11/22 07:46:06;;;;;;;4.28;1.20;;;4.10;99.90;;;;;;4955188;28;20042;-49
2022/11/22 07:48:33;;;;;;;4.47;1.40;;;4.10;99.90;;;;;;4952876;28;20051;-50
2022/11/22 07:51:06;;;;;;;11.40;1.65;;;4.10;99.90;;;;;;4955084;28;20043;-50
2022/11/22 07:53:34;;;;;;;4.18;1.48;;;4.20;99.90;;;;;;4952517;28;20053;-49
2022/11/22 07:56:03;;;;;;;4.20;1.55;;;4.10;99.90;;;;;;4957131;28;20050;-53
2022/11/22 07:58:30;;;;;;;4.95;1.13;;;4.20;99.90;;;;;;4957345;28;20464;-50
2022/11/22 08:00:57;;;;;;;2.92;1.23;;;4.20;99.90;;;;;;4951583;28;20591;-52
2022/11/22 08:03:24;;;;;;;;;;;4.20;99.90;;;;;;4957101;28;20047;-52
2022/11/22 08:06:02;;;;;;;3.20;1.40;;;4.20;99.90;;;;;;4951526;28;19926;-49
2022/11/22 08:08:30;;;;;;;2.80;1.20;;;4.20;99.90;;;;;;4952558;28;20848;-52
2022/11/22 08:10:57;;;;;;;4.65;0.80;;;4.20;99.90;;;;;;4955089;28;20039;-48
2022/11/22 08:13:24;;;;;;;4.15;0.93;;;4.20;99.90;;;;;;4953018;28;20225;-50
2022/11/22 08:15:50;;;;;;;5.05;1.00;;;4.20;99.90;;;;;;4955875;28;20073;-50
2022/11/22 08:18:21;;;;;;;5.63;1.10;;;4.20;99.90;;;;;;4934231;28;20047;-54
2022/11/22 08:20:48;;;;;;;7.45;1.33;;;4.20;99.90;;;;;;4950230;28;20058;-50
2022/11/22 08:23:14;;;;;;;;;;;4.20;99.90;;;;;;4937892;28;20126;-50
2022/11/22 08:25:41;;;;;;;2.83;0.70;;;4.20;99.90;;;;;;4944106;28;21053;-53
2022/11/22 08:28:08;;;;;;;6.65;1.08;;;4.20;99.90;;;;;;4952509;28;20086;-52
2022/11/22 08:30:34;;;;;;;;;;;4.20;99.90;;;;;;4954302;28;20049;-51
2022/11/22 08:33:01;;;;;;;5.30;1.17;;;4.20;99.90;;;;;;4953195;28;19936;-51
2022/11/22 08:35:28;;;;;;;6.22;1.35;;;4.20;99.90;;;;;;4952753;28;20054;-51
2022/11/22 08:37:56;;;;;;;7.88;1.70;;;4.20;99.90;;;;;;4947703;28;20043;-50
2022/11/22 08:40:23;;;;;;;4.60;1.10;;;4.20;99.90;;;;;;4953210;28;20054;-51
2022/11/22 08:42:52;;;;;;;8.77;2.10;;;4.20;99.90;;;;;;4947993;28;20351;-54
2022/11/22 08:45:19;;;;;;;7.55;1.45;;;4.20;99.90;;;;;;4955362;28;20054;-51
2022/11/22 08:47:47;;;;;;;;;;;4.20;99.90;;;;;;4941640;28;20049;-51
2022/11/22 08:50:15;;;;;;;;;;;4.20;99.90;;;;;;4955722;28;19932;-51
2022/11/22 08:52:42;;;;;;;6.90;1.27;;;4.20;99.90;;;;;;4933987;28;19952;-51
2022/11/22 08:55:09;;;;;;;;;;;4.20;99.90;;;;;;4954813;28;20046;-53
2022/11/22 08:57:36;;;;;;;2.97;0.80;;;4.20;99.90;;;;;;4949610;28;19948;-54
2022/11/22 09:00:03;;;;;;;;;;;4.30;99.90;;;;;;4953517;28;20637;-52
2022/11/22 09:02:30;;;;;;;3.65;0.75;;;4.20;99.90;;;;;;4952206;28;19957;-50
2022/11/22 09:04:57;;;;;;;6.45;1.83;;;4.30;99.90;;;;;;4953820;28;20050;-52
2022/11/22 09:07:24;;;;;;;;;;;4.30;99.90;;;;;;4949013;28;20047;-51
2022/11/22 09:10:11;;;;;;;3.17;1.13;;;4.30;99.90;;;;;;4952379;28;19925;-55
2022/11/22 09:12:42;;;;;;;4.03;1.33;;;4.30;99.90;;;;;;4951238;28;20047;-53
2022/11/22 09:15:09;;;;;;;2.50;0.80;;;4.40;99.90;;;;;;4950945;28;20607;-52
2022/11/22 09:17:36;;;;;;;2.58;1.00;;;4.40;99.90;;;;;;4952945;28;20579;-53
2022/11/22 09:20:04;;;;;;;1.20;0.85;;;4.50;99.90;;;;;;4951014;28;20058;-53
2022/11/22 09:22:31;;;;;;;3.65;0.88;;;4.50;99.90;;;;;;4949605;28;20046;-51
2022/11/22 09:24:58;;;;;;;6.53;1.38;;;4.60;99.90;;;;;;4950799;28;20050;-53
2022/11/22 09:27:25;;;;;;;3.03;1.17;;;4.60;99.90;;;;;;4948485;28;20668;-52
2022/11/22 09:29:52;;;;;;;6.18;3.13;;;4.60;99.90;;;;;;4952267;28;20960;-51
2022/11/22 09:32:19;;;;;;;2.65;1.23;;;4.70;99.90;;;;;;4952905;28;20129;-53
2022/11/22 09:34:45;;;;;;;;;;;4.70;99.90;;;;;;4951229;28;20046;-50
2022/11/22 09:37:17;;;;;;;2.03;0.80;;;4.70;99.90;;;;;;4956366;28;20446;-52
2022/11/22 09:39:45;;;;;;;2.45;0.90;;;4.80;99.90;;;;;;4953768;28;20053;-53
2022/11/22 09:42:32;;;;;;;5.15;1.23;;;4.80;99.90;;;;;;4959296;28;20894;-53
2022/11/22 09:45:11;;;;;;;11.27;1.80;;;4.90;99.90;;;;;;4940391;28;20058;-49
2022/11/22 09:47:50;;;;;;;6.82;1.95;;;4.90;99.90;;;;;;4956447;28;20117;-53
2022/11/22 09:50:36;;;;;;;5.63;1.73;;;4.90;99.90;;;;;;4956466;28;20038;-55
2022/11/22 09:53:13;;;;;;;4.70;1.17;;;4.90;99.90;;;;;;4939927;28;20714;-55
2022/11/22 09:55:57;;;;;;;7.40;1.65;;;4.90;99.90;;;;;;4954049;28;20956;-52
2022/11/22 09:58:41;;;;;;;6.75;2.00;;;5.00;99.90;;;;;;4954725;28;20133;-52
2022/11/22 10:01:30;;;;;;;7.20;1.58;;;5.00;99.90;;;;;;4938910;28;20062;-52
2022/11/22 10:04:04;;;;;;;6.85;2.40;;;5.00;99.90;;;;;;4954624;28;20479;-53
2022/11/22 10:06:34;;;;;;;5.80;1.27;;;5.00;99.90;;;;;;4956674;28;20050;-52
2022/11/22 10:09:26;;;;;;;14.65;2.47;;;5.10;99.90;;;;;;4954406;28;20101;-54
2022/11/22 10:12:18;;;;;;;8.88;2.40;;;5.10;99.90;;;;;;4955391;28;20129;-50
2022/11/22 10:15:10;;;;;;;10.88;1.70;;;5.10;99.90;;;;;;4955362;28;20051;-52
2022/11/22 10:17:54;;;;;;;8.70;2.08;;;5.10;99.90;;;;;;4937473;28;20046;-50
2022/11/22 10:20:24;;;;;;;8.45;2.13;;;5.10;99.90;;;;;;4955620;28;20069;-51
2022/11/22 10:22:51;;;;;;;4.72;1.25;;;5.20;99.90;;;;;;4953752;28;20045;-50
2022/11/22 10:25:26;;;;;;;9.23;1.75;;;5.20;99.90;;;;;;4955849;28;20055;-52
2022/11/22 10:27:59;;;;;;;7.68;1.90;;;5.20;99.90;;;;;;4940982;28;20163;-52
2022/11/22 10:30:37;;;;;;;7.20;1.40;;;5.20;99.90;;;;;;4955871;28;20071;-52
2022/11/22 10:33:20;;;;;;;;;;;5.20;99.90;;;;;;4955306;28;20113;-47
2022/11/22 10:35:53;;;;;;;7.65;1.75;;;5.20;99.90;;;;;;4956622;28;19933;-49
2022/11/22 10:38:41;;;;;;;5.22;1.85;;;5.30;99.90;;;;;;4956326;28;20054;-48
2022/11/22 10:41:32;;;;;;;8.20;2.03;;;5.30;99.90;;;;;;4956223;28;20069;-48
2022/11/22 10:44:38;;;;;;;9.85;1.83;;;5.30;99.90;;;;;;4944506;28;20050;-51
2022/11/22 10:47:07;;;;;;;8.13;2.22;;;5.40;99.90;;;;;;4931918;28;21008;-48
2022/11/22 10:49:51;;;;;;;5.30;1.90;;;5.40;99.90;;;;;;4955682;28;20706;-49
2022/11/22 10:52:36;;;;;;;7.13;1.88;;;5.40;99.90;;;;;;4956558;28;20045;-48
2022/11/22 10:55:36;;;;;;;8.10;1.50;;;5.50;99.90;;;;;;4952517;28;20074;-51
2022/11/22 10:58:23;;;;;;;10.50;1.75;;;5.50;99.90;;;;;;4951584;28;20051;-50
2022/11/22 11:00:58;;;;;;;17.43;2.07;;;5.50;99.90;;;;;;4950985;28;20042;-52
2022/11/22 11:03:31;;;;;;;10.88;1.80;;;5.50;99.90;;;;;;4954219;28;20603;-51
2022/11/22 11:06:07;;;;;;;7.57;1.73;;;5.50;99.90;;;;;;4954458;28;20505;-52
2022/11/22 11:08:56;;;;;;;11.20;1.73;;;5.60;99.90;;;;;;4956045;28;20062;-50
2022/11/22 11:11:45;;;;;;;4.47;1.40;;;5.60;99.90;;;;;;4952965;28;20685;-50
2022/11/22 11:14:25;;;;;;;7.10;1.88;;;5.60;99.90;;;;;;4951290;28;20132;-52
2022/11/22 11:16:52;;;;;;;3.05;1.35;;;5.60;99.90;;;;;;4954007;28;20517;-52
2022/11/22 11:19:21;;;;;;;6.00;2.25;;;5.60;99.90;;;;;;4954408;28;20047;-50
2022/11/22 11:22:16;;;;;;;5.63;1.85;;;5.70;99.90;;;;;;4951942;28;20149;-52
2022/11/22 11:25:42;;;;;;;10.63;2.72;;;5.70;99.90;;;;;;4949136;28;20457;-51
2022/11/22 11:28:11;;;;;;;7.00;2.45;;;5.70;99.90;;;;;;4954692;28;20583;-50
2022/11/22 11:30:44;;;;;;;13.30;4.40;;;5.70;99.90;;;;;;4956769;28;20788;-50
2022/11/22 11:33:17;;;;;;;10.93;3.33;;;5.80;99.90;;;;;;4955035;28;20804;-50
2022/11/22 11:35:45;;;;;;;10.73;2.95;;;5.80;99.90;;;;;;4954640;28;20051;-51
2022/11/22 11:38:43;;;;;;;11.68;2.85;;;5.80;99.90;;;;;;4953103;28;20636;-51
2022/11/22 11:41:17;;;;;;;6.93;2.50;;;5.80;99.90;;;;;;4935947;28;20241;-52
2022/11/22 11:43:47;;;;;;;6.15;1.60;;;5.80;99.90;;;;;;4951343;28;20116;-53
2022/11/22 11:46:23;;;;;;;4.63;1.48;;;5.80;99.90;;;;;;4953219;28;20120;-52
2022/11/22 11:48:54;;;;;;;5.30;1.60;;;5.90;99.90;;;;;;4944327;28;20047;-51
2022/11/22 11:51:34;;;;;;;6.00;2.05;;;5.90;99.90;;;;;;4953746;28;20129;-53
2022/11/22 11:54:08;;;;;;;12.45;2.38;;;5.90;99.90;;;;;;4952877;28;20141;-52
2022/11/22 11:56:44;;;;;;;6.93;1.45;;;5.90;99.90;;;;;;4954316;28;20054;-53
2022/11/22 11:59:15;;;;;;;10.50;1.95;;;5.90;99.90;;;;;;4953412;28;20104;-53
2022/11/22 12:02:13;;;;;;;5.85;1.35;;;5.90;99.90;;;;;;4953361;28;20065;-50
2022/11/22 12:04:52;;;;;;;7.53;1.33;;;5.90;99.90;;;;;;4950217;28;20066;-51
2022/11/22 12:07:18;;;;;;;5.60;1.65;;;5.90;99.90;;;;;;4952320;28;20051;-52
2022/11/22 12:09:46;;;;;;;;;;;5.90;99.90;;;;;;4951428;28;20051;-53
2022/11/22 12:12:19;;;;;;;;;;;5.90;99.90;;;;;;4953775;28;20753;-52
2022/11/22 12:14:50;;;;;;;;;;;5.80;99.90;;;;;;4954657;28;19961;-53
2022/11/22 12:17:41;;;;;;;;;;;5.80;99.90;;;;;;4956071;28;19977;-53
2022/11/22 12:20:12;;;;;;;;;;;5.80;99.90;;;;;;4953005;28;19932;-52
2022/11/22 12:22:39;;;;;;;;;;;5.80;99.90;;;;;;4955157;28;20537;-55
2022/11/22 12:25:32;;;;;;;;;;;5.80;99.90;;;;;;4951659;28;19989;-54
2022/11/22 12:28:04;;;;;;;;;;;5.90;99.90;;;;;;4952896;28;20643;-54
2022/11/22 12:30:31;;;;;;;;;;;5.90;99.90;;;;;;4953538;28;19926;-51
2022/11/22 12:33:00;;;;;;;;;;;5.80;99.90;;;;;;4953750;28;19925;-54
2022/11/22 12:35:28;;;;;;;;;;;5.80;99.90;;;;;;4954305;28;19926;-52
2022/11/22 12:37:55;;;;;;;;;;;5.80;99.90;;;;;;4952864;28;20013;-54
2022/11/22 12:40:32;;;;;;;;;;;5.80;99.90;;;;;;4954272;28;19926;-52
2022/11/22 12:43:18;;;;;;;;;;;5.80;99.90;;;;;;4953423;28;19929;-52
2022/11/22 12:45:48;;;;;;;;;;;5.80;99.90;;;;;;4951782;28;19970;-54
2022/11/22 12:48:26;;;;;;;;;;;5.80;99.90;;;;;;4953368;28;19953;-55
2022/11/22 12:50:55;;;;;;;;;;;5.90;99.90;;;;;;4954490;28;20105;-55
2022/11/22 12:53:26;;;;;;;;;;;5.90;99.90;;;;;;4953089;28;19934;-54
2022/11/22 12:56:11;;;;;;;;;;;5.90;99.90;;;;;;4952586;28;20007;-53
2022/11/22 12:58:40;;;;;;;;;;;5.90;99.90;;;;;;4953953;28;19930;-54
2022/11/22 13:01:16;;;;;;;;;;;5.90;99.90;;;;;;4953474;28;19925;-56
2022/11/22 13:03:47;;;;;;;;;;;5.90;99.90;;;;;;4944707;28;20032;-52
2022/11/22 13:06:18;;;;;;;;;;;5.90;99.90;;;;;;4941940;28;19926;-49
2022/11/22 13:08:45;;;;;;;;;;;5.90;99.90;;;;;;4951776;28;19926;-52
2022/11/22 13:11:26;;;;;;;;;;;5.90;99.90;;;;;;4937956;28;19925;-51
2022/11/22 13:13:57;;;;;;;;;;;5.90;99.90;;;;;;4957696;28;19925;-52
2022/11/22 13:16:23;;;;;;;;;;;5.90;99.90;;;;;;4957041;28;19972;-56
2022/11/22 13:18:55;;;;;;;;;;;5.90;99.90;;;;;;4949653;28;19926;-50
2022/11/22 13:21:41;;;;;;;;;;;5.90;99.90;;;;;;4956640;28;19929;-53
2022/11/22 13:24:14;;;;;;;;;;;5.90;99.90;;;;;;4957907;28;20036;-54
2022/11/22 13:26:55;;;;;;;;;;;5.90;99.90;;;;;;4952726;28;19926;-51
2022/11/22 13:29:23;;;;;;;;;;;5.90;99.90;;;;;;4958275;28;20679;-52
2022/11/22 13:32:00;;;;;;;;;;;5.90;99.90;;;;;;4958034;28;19937;-53
2022/11/22 13:34:27;;;;;;;;;;;5.90;99.90;;;;;;4955580;28;20067;-49
2022/11/22 13:37:01;;;;;;;;;;;5.90;99.90;;;;;;4948447;28;19933;-51
2022/11/22 13:39:28;;;;;;;;;;;5.90;99.90;;;;;;4956721;28;20014;-50
2022/11/22 13:41:58;;;;;;;;;;;5.90;99.90;;;;;;4956698;28;19932;-54
2022/11/22 13:44:30;;;;;;;;;;;5.90;99.90;;;;;;4957300;28;19933;-50
2022/11/22 13:47:04;;;;;;;;;;;5.80;99.90;;;;;;4938535;28;19926;-54
2022/11/22 13:49:34;;;;;;;;;;;5.80;99.90;;;;;;4954037;28;20016;-51